createdAt,value
2023-05-12T00:00:22.743Z,99581.53
2023-05-12T00:01:24.393Z,99575.47
2023-05-12T00:02:26.192Z,99577.00
2023-05-12T00:03:27.990Z,99583.03
2023-05-12T00:04:29.741Z,99586.41
2023-05-12T00:05:31.420Z,99578.13
2023-05-12T00:06:33.058Z,99577.00
2023-05-12T00:07:34.861Z,99556.63
2023-05-12T00:08:36.482Z,99584.53
2023-05-12T00:09:38.105Z,99576.97
2023-05-12T00:10:39.835Z,99545.31
2023-05-12T00:11:41.442Z,99575.47
2023-05-12T00:12:43.099Z,99565.28
2023-05-12T00:13:44.786Z,99577.38
2023-05-12T00:14:46.447Z,99584.56
2023-05-12T00:15:48.291Z,99585.69
2023-05-12T00:16:49.984Z,99582.66
2023-05-12T00:17:51.711Z,99582.28
2023-05-12T00:18:53.442Z,99580.03
2023-05-12T00:19:55.150Z,99575.50
2023-05-12T00:20:56.837Z,99542.69
2023-05-12T00:21:58.464Z,99577.00
2023-05-12T00:23:00.072Z,99577.38
2023-05-12T00:24:01.799Z,99579.25
2023-05-12T00:25:03.460Z,99581.16
2023-05-12T00:26:05.087Z,99581.53
2023-05-12T00:27:07.008Z,99586.03
2023-05-12T00:28:08.665Z,99586.81
2023-05-12T00:29:10.348Z,99577.75
2023-05-12T00:30:12.186Z,99566.41
2023-05-12T00:31:13.832Z,99578.13
2023-05-12T00:32:15.651Z,99551.72
2023-05-12T00:33:17.328Z,99557.38
2023-05-12T00:34:19.164Z,99577.75
2023-05-12T00:35:20.851Z,99563.41
2023-05-12T00:36:22.548Z,99560.41
2023-05-12T00:37:24.199Z,99560.41
2023-05-12T00:38:25.901Z,99560.75
2023-05-12T00:39:27.540Z,99578.47
2023-05-12T00:40:29.250Z,99578.88
2023-05-12T00:41:30.871Z,99553.63
2023-05-12T00:42:34.384Z,99576.97
2023-05-12T00:43:36.087Z,99533.25
2023-05-12T00:44:37.914Z,99580.75
2023-05-12T00:45:39.599Z,99583.78
2023-05-12T00:46:41.289Z,99549.47
2023-05-12T00:47:43.481Z,99540.03
2023-05-12T00:48:45.562Z,99583.00
2023-05-12T00:49:47.186Z,99576.25
2023-05-12T00:50:48.885Z,99577.75
2023-05-12T00:51:50.528Z,99578.88
2023-05-12T00:52:52.160Z,99562.31
2023-05-12T00:53:54.033Z,99577.75
2023-05-12T00:54:55.679Z,99588.69
2023-05-12T00:55:57.317Z,99556.25
2023-05-12T00:57:00.441Z,99586.03
2023-05-12T00:58:02.524Z,99567.19
2023-05-12T00:59:04.220Z,99585.28
2023-05-12T01:00:06.727Z,99556.66
2023-05-12T01:01:08.474Z,99587.56
2023-05-12T01:02:10.107Z,99584.53
2023-05-12T01:03:11.797Z,99586.41
2023-05-12T01:04:13.506Z,99585.31
2023-05-12T01:05:15.383Z,99596.63
2023-05-12T01:06:22.070Z,99596.59
2023-05-12T01:07:24.665Z,99597.38
2023-05-12T01:08:26.343Z,99598.50
2023-05-12T01:09:27.978Z,99589.06
2023-05-12T01:10:30.746Z,99532.81
2023-05-12T01:11:32.392Z,99584.53
2023-05-12T01:12:34.028Z,99601.16
2023-05-12T01:13:37.052Z,99599.25
2023-05-12T01:14:38.923Z,99591.34
2023-05-12T01:15:42.414Z,99602.66
2023-05-12T01:16:52.136Z,99582.66
2023-05-12T01:17:57.592Z,99593.59
2023-05-12T01:18:59.288Z,99598.88
2023-05-12T01:20:02.305Z,99599.63
2023-05-12T01:21:04.118Z,99598.06
2023-05-12T01:22:05.749Z,99596.53
2023-05-12T01:23:07.362Z,99609.34
2023-05-12T01:24:09.046Z,99607.84
2023-05-12T01:25:11.815Z,99590.88
2023-05-12T01:26:13.463Z,99606.31
2023-05-12T01:27:15.633Z,99584.09
2023-05-12T01:28:17.609Z,99585.97
2023-05-12T01:29:19.352Z,99590.16
2023-05-12T01:30:21.570Z,99579.97
2023-05-12T01:31:23.912Z,99584.09
2023-05-12T01:32:25.619Z,99595.81
2023-05-12T01:33:27.275Z,99589.78
2023-05-12T01:34:28.928Z,99602.63
2023-05-12T01:35:30.823Z,99601.13
2023-05-12T01:36:34.723Z,99603.41
2023-05-12T01:37:36.401Z,99611.34
2023-05-12T01:38:39.782Z,99598.50
2023-05-12T01:39:42.603Z,99605.66
2023-05-12T01:40:49.295Z,99604.91
2023-05-12T01:41:51.056Z,99610.19
2023-05-12T01:42:52.700Z,99576.97
2023-05-12T01:43:54.513Z,99606.41
2023-05-12T01:44:56.208Z,99596.63
2023-05-12T01:45:58.253Z,99604.91
2023-05-12T01:47:00.548Z,99605.28
2023-05-12T01:48:02.749Z,99598.13
2023-05-12T01:49:05.028Z,99605.28
2023-05-12T01:50:06.795Z,99600.72
2023-05-12T01:51:08.564Z,99596.97
2023-05-12T01:52:10.199Z,99609.38
2023-05-12T01:53:11.812Z,99606.72
2023-05-12T01:54:13.464Z,99608.59
2023-05-12T01:55:15.921Z,99609.34
2023-05-12T01:56:25.699Z,99574.63
2023-05-12T01:57:27.400Z,99613.16
2023-05-12T01:58:32.553Z,99606.00
2023-05-12T01:59:34.830Z,99595.38
2023-05-12T02:00:37.862Z,99610.50
2023-05-12T02:01:42.412Z,99609.69
2023-05-12T02:02:45.480Z,99609.31
2023-05-12T02:03:48.165Z,99612.31
2023-05-12T02:04:49.945Z,99600.19
2023-05-12T02:05:51.667Z,99613.41
2023-05-12T02:06:53.730Z,99605.91
2023-05-12T02:07:55.419Z,99607.75
2023-05-12T02:08:57.225Z,99614.13
2023-05-12T02:09:58.830Z,99590.41
2023-05-12T02:11:05.529Z,99573.81
2023-05-12T02:12:07.523Z,99609.34
2023-05-12T02:13:09.227Z,99610.09
2023-05-12T02:14:10.945Z,99614.22
2023-05-12T02:15:12.705Z,99602.16
2023-05-12T02:16:18.909Z,99607.09
2023-05-12T02:17:20.853Z,99604.84
2023-05-12T02:18:24.511Z,99605.59
2023-05-12T02:19:26.313Z,99613.16
2023-05-12T02:20:27.954Z,99612.78
2023-05-12T02:21:29.615Z,99609.34
2023-05-12T02:22:31.375Z,99612.38
2023-05-12T02:23:33.805Z,99612.78
2023-05-12T02:24:35.820Z,99610.50
2023-05-12T02:25:37.554Z,99609.00
2023-05-12T02:26:39.406Z,99605.22
2023-05-12T02:27:41.197Z,99609.38
2023-05-12T02:28:43.565Z,99608.25
2023-05-12T02:29:45.459Z,99568.63
2023-05-12T02:30:48.089Z,99616.91
2023-05-12T02:31:50.346Z,99582.22
2023-05-12T02:32:52.580Z,99624.47
2023-05-12T02:33:54.334Z,99584.09
2023-05-12T02:34:56.415Z,99618.81
2023-05-12T02:35:58.493Z,99615.78
2023-05-12T02:37:00.148Z,99615.38
2023-05-12T02:38:02.015Z,99610.13
2023-05-12T02:39:03.701Z,99611.63
2023-05-12T02:40:06.366Z,99614.63
2023-05-12T02:41:07.985Z,99612.38
2023-05-12T02:42:09.648Z,99624.41
2023-05-12T02:43:11.363Z,99610.06
2023-05-12T02:44:13.057Z,99625.94
2023-05-12T02:45:14.710Z,99625.16
2023-05-12T02:46:16.441Z,99607.72
2023-05-12T02:47:18.166Z,99627.31
2023-05-12T02:48:19.806Z,99628.09
2023-05-12T02:49:21.429Z,99628.44
2023-05-12T02:50:23.183Z,99625.78
2023-05-12T02:51:24.922Z,99619.78
2023-05-12T02:52:26.533Z,99628.78
2023-05-12T02:53:28.164Z,99616.31
2023-05-12T02:54:29.818Z,99627.66
2023-05-12T02:55:31.434Z,99585.41
2023-05-12T02:56:34.024Z,99582.03
2023-05-12T02:57:36.052Z,99620.63
2023-05-12T02:58:37.686Z,99622.06
2023-05-12T02:59:39.313Z,99619.41
2023-05-12T03:00:40.955Z,99621.31
2023-05-12T03:01:42.631Z,99619.00
2023-05-12T03:02:44.386Z,99624.97
2023-05-12T03:03:46.270Z,99624.56
2023-05-12T03:04:48.052Z,99625.75
2023-05-12T03:05:49.821Z,99613.66
2023-05-12T03:06:51.567Z,99626.50
2023-05-12T03:07:53.366Z,99622.69
2023-05-12T03:08:55.053Z,99619.66
2023-05-12T03:09:57.609Z,99622.75
2023-05-12T03:10:59.498Z,99610.66
2023-05-12T03:12:03.856Z,99626.91
2023-05-12T03:13:05.676Z,99624.66
2023-05-12T03:14:07.433Z,99628.06
2023-05-12T03:15:09.340Z,99625.06
2023-05-12T03:16:11.016Z,99611.84
2023-05-12T03:17:12.812Z,99624.28
2023-05-12T03:18:15.476Z,99622.78
2023-05-12T03:19:17.076Z,99623.53
2023-05-12T03:20:18.999Z,99614.88
2023-05-12T03:21:20.857Z,99615.97
2023-05-12T03:22:22.507Z,99623.91
2023-05-12T03:23:24.156Z,99616.72
2023-05-12T03:24:25.770Z,99605.25
2023-05-12T03:25:27.430Z,99624.25
2023-05-12T03:26:29.080Z,99617.88
2023-05-12T03:27:33.331Z,99620.53
2023-05-12T03:28:35.172Z,99618.97
2023-05-12T03:29:36.811Z,99598.94
2023-05-12T03:30:38.603Z,99612.91
2023-05-12T03:31:40.940Z,99603.47
2023-05-12T03:32:42.676Z,99617.75
2023-05-12T03:33:45.426Z,99623.00
2023-05-12T03:34:47.279Z,99614.72
2023-05-12T03:35:49.843Z,99610.63
2023-05-12T03:36:52.448Z,99609.16
2023-05-12T03:37:54.074Z,99618.97
2023-05-12T03:38:55.899Z,99614.88
2023-05-12T03:39:57.536Z,99617.50
2023-05-12T03:41:08.489Z,99611.50
2023-05-12T03:42:10.596Z,99605.88
2023-05-12T03:43:12.247Z,99619.47
2023-05-12T03:44:14.600Z,99616.06
2023-05-12T03:45:16.239Z,99617.88
2023-05-12T03:46:17.942Z,99614.88
2023-05-12T03:47:19.784Z,99613.69
2023-05-12T03:48:21.657Z,99602.63
2023-05-12T03:49:23.289Z,99622.28
2023-05-12T03:50:25.076Z,99621.19
2023-05-12T03:51:26.770Z,99581.13
2023-05-12T03:52:28.371Z,99619.38
2023-05-12T03:53:29.994Z,99623.50
2023-05-12T03:54:32.036Z,99608.03
2023-05-12T03:55:34.022Z,99621.28
2023-05-12T03:56:35.713Z,99621.97
2023-05-12T03:57:37.324Z,99622.69
2023-05-12T03:58:39.051Z,99623.41
2023-05-12T03:59:40.694Z,99626.81
2023-05-12T04:00:42.321Z,99623.69
2023-05-12T04:01:44.054Z,99587.34
2023-05-12T04:02:45.776Z,99611.13
2023-05-12T04:03:49.058Z,99616.50
2023-05-12T04:04:50.768Z,99582.13
2023-05-12T04:06:00.435Z,99617.31
2023-05-12T04:07:02.085Z,99635.31
2023-05-12T04:08:03.828Z,99635.34
2023-05-12T04:09:05.476Z,99610.88
2023-05-12T04:10:07.869Z,99628.97
2023-05-12T04:11:09.541Z,99630.38
2023-05-12T04:12:11.217Z,99610.41
2023-05-12T04:13:12.933Z,99635.72
2023-05-12T04:14:14.988Z,99631.25
2023-05-12T04:15:16.595Z,99641.88
2023-05-12T04:16:18.274Z,99633.94
2023-05-12T04:17:20.046Z,99636.13
2023-05-12T04:18:21.774Z,99643.63
2023-05-12T04:19:23.379Z,99645.91
2023-05-12T04:20:25.217Z,99645.50
2023-05-12T04:21:26.867Z,99643.59
2023-05-12T04:22:28.675Z,99643.22
2023-05-12T04:23:30.347Z,99648.50
2023-05-12T04:24:32.016Z,99633.78
2023-05-12T04:25:33.763Z,99639.13
2023-05-12T04:26:35.422Z,99638.47
2023-05-12T04:27:37.117Z,99603.28
2023-05-12T04:28:38.744Z,99627.16
2023-05-12T04:29:40.407Z,99640.00
2023-05-12T04:30:42.240Z,99641.78
2023-05-12T04:31:43.961Z,99641.75
2023-05-12T04:32:45.922Z,99643.75
2023-05-12T04:33:48.454Z,99651.66
2023-05-12T04:34:50.246Z,99647.16
2023-05-12T04:35:56.171Z,99652.09
2023-05-12T04:36:57.833Z,99647.94
2023-05-12T04:37:59.473Z,99647.53
2023-05-12T04:39:01.353Z,99647.19
2023-05-12T04:40:03.226Z,99647.97
2023-05-12T04:41:04.991Z,99649.88
2023-05-12T04:42:06.635Z,99654.41
2023-05-12T04:43:59.798Z,99654.41
2023-05-12T04:44:31.145Z,99649.50
2023-05-12T04:45:32.807Z,99651.78
2023-05-12T04:46:34.604Z,99654.44
2023-05-12T04:47:36.353Z,99655.53
2023-05-12T04:48:38.013Z,99652.81
2023-05-12T04:49:39.679Z,99664.34
2023-05-12T04:50:41.301Z,99664.00
2023-05-12T04:51:42.953Z,99655.41
2023-05-12T04:52:44.812Z,99644.31
2023-05-12T04:53:47.133Z,99653.00
2023-05-12T04:54:49.232Z,99621.31
2023-05-12T04:55:51.303Z,99669.25
2023-05-12T04:56:52.951Z,99670.72
2023-05-12T04:57:54.592Z,99664.69
2023-05-12T04:58:56.336Z,99659.81
2023-05-12T04:59:57.990Z,99665.50
2023-05-12T05:00:59.654Z,99661.38
2023-05-12T05:02:01.389Z,99647.44
2023-05-12T05:03:03.097Z,99654.22
2023-05-12T05:04:05.057Z,99651.97
2023-05-12T05:05:07.087Z,99640.28
2023-05-12T05:06:08.982Z,99628.97
2023-05-12T05:07:10.681Z,99658.03
2023-05-12T05:08:12.270Z,99647.31
2023-05-12T05:09:13.922Z,99655.63
2023-05-12T05:10:15.703Z,99665.75
2023-05-12T05:11:19.037Z,99666.94
2023-05-12T05:12:21.006Z,99660.41
2023-05-12T05:13:23.271Z,99671.03
2023-05-12T05:14:25.975Z,99666.63
2023-05-12T05:15:28.617Z,99671.53
2023-05-12T05:16:30.500Z,99660.91
2023-05-12T05:17:32.425Z,99623.88
2023-05-12T05:18:34.281Z,99652.34
2023-05-12T05:19:49.832Z,99661.78
2023-05-12T05:20:58.575Z,99644.09
2023-05-12T05:22:00.859Z,99663.41
2023-05-12T05:23:02.605Z,99660.81
2023-05-12T05:24:04.274Z,99661.56
2023-05-12T05:25:06.757Z,99653.69
2023-05-12T05:26:08.575Z,99660.38
2023-05-12T05:27:10.218Z,99655.91
2023-05-12T05:28:11.899Z,99663.44
2023-05-12T05:29:13.613Z,99643.13
2023-05-12T05:30:15.568Z,99656.69
2023-05-12T05:31:17.319Z,99647.19
2023-05-12T05:32:19.028Z,99655.53
2023-05-12T05:33:20.743Z,99657.41
2023-05-12T05:34:22.403Z,99639.16
2023-05-12T05:35:24.314Z,99665.63
2023-05-12T05:36:27.816Z,99648.56
2023-05-12T05:37:30.109Z,99644.06
2023-05-12T05:38:32.596Z,99664.13
2023-05-12T05:39:34.230Z,99667.03
2023-05-12T05:40:51.476Z,99677.88
2023-05-12T05:41:54.332Z,99677.34
2023-05-12T05:42:56.000Z,99687.88
2023-05-12T05:43:57.672Z,99623.31
2023-05-12T05:44:59.295Z,99673.72
2023-05-12T05:46:00.955Z,99665.88
2023-05-12T05:47:02.748Z,99669.34
2023-05-12T05:48:04.470Z,99677.25
2023-05-12T05:49:06.179Z,99671.63
2023-05-12T05:50:08.278Z,99670.81
2023-05-12T05:51:12.294Z,99662.16
2023-05-12T05:52:14.106Z,99679.53
2023-05-12T05:53:15.795Z,99666.44
2023-05-12T05:54:18.251Z,99669.72
2023-05-12T05:55:20.707Z,99622.44
2023-05-12T05:56:22.508Z,99666.34
2023-05-12T05:57:24.194Z,99676.91
2023-05-12T05:58:25.885Z,99673.50
2023-05-12T05:59:27.514Z,99672.44
2023-05-12T06:00:29.373Z,99654.31
2023-05-12T06:01:31.676Z,99677.66
2023-05-12T06:02:34.246Z,99675.78
2023-05-12T06:03:36.018Z,99677.25
2023-05-12T06:04:37.753Z,99681.31
2023-05-12T06:05:39.518Z,99680.19
2023-05-12T06:06:41.199Z,99688.06
2023-05-12T06:07:42.881Z,99690.22
2023-05-12T06:08:44.521Z,99690.97
2023-05-12T06:09:46.170Z,99685.72
2023-05-12T06:10:47.811Z,99685.44
2023-05-12T06:11:49.662Z,99687.31
2023-05-12T06:12:51.344Z,99686.53
2023-05-12T06:13:52.970Z,99692.16
2023-05-12T06:14:54.591Z,99695.16
2023-05-12T06:15:56.566Z,99697.06
2023-05-12T06:16:58.419Z,99698.53
2023-05-12T06:18:00.194Z,99695.13
2023-05-12T06:19:01.937Z,99708.69
2023-05-12T06:20:03.849Z,99705.41
2023-05-12T06:21:05.642Z,99693.38
2023-05-12T06:22:07.312Z,99704.69
2023-05-12T06:23:08.936Z,99694.56
2023-05-12T06:24:10.634Z,99700.66
2023-05-12T06:25:12.351Z,99686.28
2023-05-12T06:26:14.042Z,99698.38
2023-05-12T06:27:15.756Z,99680.91
2023-05-12T06:28:17.471Z,99704.00
2023-05-12T06:29:19.115Z,99676.78
2023-05-12T06:30:20.742Z,99703.66
2023-05-12T06:31:22.443Z,99685.63
2023-05-12T06:32:24.134Z,99699.28
2023-05-12T06:33:25.772Z,99683.88
2023-05-12T06:34:27.425Z,99689.88
2023-05-12T06:35:29.031Z,99696.31
2023-05-12T06:36:30.709Z,99688.03
2023-05-12T06:37:32.335Z,99654.41
2023-05-12T06:38:34.057Z,99683.09
2023-05-12T06:39:35.704Z,99658.53
2023-05-12T06:40:37.338Z,99691.38
2023-05-12T06:41:38.961Z,99688.59
2023-05-12T06:42:40.629Z,99704.44
2023-05-12T06:43:47.115Z,99682.88
2023-05-12T06:44:48.752Z,99689.00
2023-05-12T06:45:50.414Z,99702.19
2023-05-12T06:46:52.265Z,99699.19
2023-05-12T06:47:54.921Z,99662.13
2023-05-12T06:48:56.589Z,99682.59
2023-05-12T06:49:58.236Z,99702.25
2023-05-12T06:50:59.873Z,99704.13
2023-05-12T06:52:04.791Z,99675.38
2023-05-12T06:53:06.741Z,99684.09
2023-05-12T06:54:08.371Z,99694.75
2023-05-12T06:55:10.036Z,99669.09
2023-05-12T06:56:11.699Z,99693.25
2023-05-12T06:57:13.342Z,99689.06
2023-05-12T06:58:15.000Z,99698.09
2023-05-12T06:59:16.618Z,99695.03
2023-05-12T07:00:18.495Z,99699.97
2023-05-12T07:01:20.245Z,99712.41
2023-05-12T07:02:21.988Z,99693.56
2023-05-12T07:03:23.775Z,99686.78
2023-05-12T07:04:26.513Z,99702.31
2023-05-12T07:05:29.578Z,99706.47
2023-05-12T07:06:31.332Z,99707.16
2023-05-12T07:07:32.956Z,99707.16
2023-05-12T07:08:34.582Z,99706.81
2023-05-12T07:09:36.218Z,99698.25
2023-05-12T07:10:37.917Z,99677.06
2023-05-12T07:11:39.666Z,99678.88
2023-05-12T07:12:41.347Z,99704.25
2023-05-12T07:13:43.011Z,99705.34
2023-05-12T07:14:44.623Z,99699.31
2023-05-12T07:15:46.353Z,99703.50
2023-05-12T07:16:48.014Z,99688.25
2023-05-12T07:17:49.777Z,99688.25
2023-05-12T07:18:51.511Z,99712.44
2023-05-12T07:19:53.170Z,99677.69
2023-05-12T07:20:54.845Z,99685.97
2023-05-12T07:21:56.465Z,99698.91
2023-05-12T07:22:58.066Z,99696.31
2023-05-12T07:23:59.747Z,99688.47
2023-05-12T07:25:01.457Z,99697.50
2023-05-12T07:26:03.538Z,99695.25
2023-05-12T07:27:05.513Z,99697.53
2023-05-12T07:28:07.129Z,99695.66
2023-05-12T07:29:09.495Z,99688.47
2023-05-12T07:30:11.972Z,99696.00
2023-05-12T07:31:13.613Z,99689.25
2023-05-12T07:32:15.330Z,99696.41
2023-05-12T07:33:16.946Z,99678.97
2023-05-12T07:34:18.576Z,99679.31
2023-05-12T07:35:20.523Z,99694.44
2023-05-12T07:36:22.327Z,99685.75
2023-05-12T07:37:23.975Z,99704.22
2023-05-12T07:38:25.739Z,99685.25
2023-05-12T07:39:27.371Z,99706.81
2023-05-12T07:40:28.985Z,99701.47
2023-05-12T07:41:32.509Z,99709.06
2023-05-12T07:42:34.814Z,99698.91
2023-05-12T07:43:36.468Z,99703.41
2023-05-12T07:44:38.104Z,99692.06
2023-05-12T07:45:39.748Z,99704.88
2023-05-12T07:46:41.445Z,99696.97
2023-05-12T07:47:43.119Z,99710.16
2023-05-12T07:48:44.744Z,99691.59
2023-05-12T07:49:46.422Z,99698.03
2023-05-12T07:50:48.048Z,99711.69
2023-05-12T07:51:49.648Z,99714.44
2023-05-12T07:52:52.088Z,99713.72
2023-05-12T07:53:53.730Z,99673.13
2023-05-12T07:54:56.684Z,99703.38
2023-05-12T07:55:58.290Z,99707.97
2023-05-12T07:57:02.680Z,99722.63
2023-05-12T07:58:06.398Z,99715.47
2023-05-12T07:59:08.008Z,99716.22
2023-05-12T08:00:10.522Z,99720.06
2023-05-12T08:01:14.661Z,99726.03
2023-05-12T08:02:16.291Z,99717.34
2023-05-12T08:03:18.016Z,99724.88
2023-05-12T08:04:19.750Z,99728.22
2023-05-12T08:05:21.658Z,99718.03
2023-05-12T08:06:24.933Z,99720.66
2023-05-12T08:07:26.721Z,99732.00
2023-05-12T08:08:28.352Z,99735.81
2023-05-12T08:09:30.010Z,99728.31
2023-05-12T08:10:31.654Z,99729.78
2023-05-12T08:11:33.274Z,99732.06
2023-05-12T08:12:34.934Z,99720.75
2023-05-12T08:13:37.237Z,99738.59
2023-05-12T08:14:38.904Z,99714.06
2023-05-12T08:15:40.992Z,99732.94
2023-05-12T08:16:42.671Z,99732.53
2023-05-12T08:17:44.361Z,99729.78
2023-05-12T08:18:46.083Z,99740.34
2023-05-12T08:19:47.748Z,99714.25
2023-05-12T08:20:49.496Z,99734.25
2023-05-12T08:21:51.110Z,99739.97
2023-05-12T08:22:52.814Z,99663.94
2023-05-12T08:23:54.895Z,99733.94
2023-05-12T08:24:56.520Z,99739.69
2023-05-12T08:25:58.152Z,99729.94
2023-05-12T08:26:59.802Z,99737.09
2023-05-12T08:28:01.598Z,99732.63
2023-05-12T08:29:03.233Z,99734.16
2023-05-12T08:30:05.141Z,99733.00
2023-05-12T08:31:06.814Z,99731.91
2023-05-12T08:32:08.451Z,99726.59
2023-05-12T08:33:10.119Z,99739.47
2023-05-12T08:34:11.868Z,99732.66
2023-05-12T08:35:13.665Z,99723.19
2023-05-12T08:36:15.400Z,99732.28
2023-05-12T08:37:17.045Z,99722.06
2023-05-12T08:38:18.721Z,99728.47
2023-05-12T08:39:20.586Z,99726.19
2023-05-12T08:40:22.780Z,99705.09
2023-05-12T08:41:27.267Z,99724.34
2023-05-12T08:42:42.850Z,99715.28
2023-05-12T08:43:50.804Z,99725.06
2023-05-12T08:44:55.224Z,99702.75
2023-05-12T08:45:56.871Z,99712.94
2023-05-12T08:46:58.631Z,99730.75
2023-05-12T08:48:00.373Z,99715.31
2023-05-12T08:49:02.593Z,99724.78
2023-05-12T08:50:04.474Z,99721.00
2023-05-12T08:51:09.213Z,99722.13
2023-05-12T08:52:11.153Z,99702.50
2023-05-12T08:53:12.854Z,99724.38
2023-05-12T08:54:14.472Z,99708.47
2023-05-12T08:55:16.106Z,99726.94
2023-05-12T08:57:23.034Z,99734.91
2023-05-12T08:58:30.624Z,99734.53
2023-05-12T08:59:43.731Z,99731.94
2023-05-12T09:00:45.469Z,99705.91
2023-05-12T09:01:47.168Z,99717.28
2023-05-12T09:02:53.904Z,99717.22
2023-05-12T09:03:56.321Z,99723.63
2023-05-12T09:04:57.994Z,99716.78
2023-05-12T09:05:59.829Z,99710.75
2023-05-12T09:07:01.495Z,99716.00
2023-05-12T09:08:03.120Z,99723.97
2023-05-12T09:09:04.776Z,99729.66
2023-05-12T09:10:06.817Z,99732.22
2023-05-12T09:11:10.753Z,99728.47
2023-05-12T09:12:14.972Z,99743.53
2023-05-12T09:13:22.995Z,99729.19
2023-05-12T09:14:25.390Z,99732.22
2023-05-12T09:15:29.597Z,99714.72
2023-05-12T09:16:39.592Z,99731.78
2023-05-12T09:17:41.348Z,99735.84
2023-05-12T09:18:51.076Z,99714.31
2023-05-12T09:19:52.694Z,99727.53
2023-05-12T09:20:54.327Z,99731.72
2023-05-12T09:21:55.968Z,99743.47
2023-05-12T09:22:57.640Z,99745.69
2023-05-12T09:24:00.154Z,99738.19
2023-05-12T09:25:02.079Z,99739.31
2023-05-12T09:26:03.940Z,99737.00
2023-05-12T09:27:05.934Z,99724.91
2023-05-12T09:28:07.628Z,99739.34
2023-05-12T09:29:09.946Z,99735.28
2023-05-12T09:30:14.050Z,99720.88
2023-05-12T09:31:17.417Z,99738.69
2023-05-12T09:32:19.121Z,99745.84
2023-05-12T09:33:20.762Z,99751.78
2023-05-12T09:34:33.084Z,99743.50
2023-05-12T09:35:41.519Z,99740.16
2023-05-12T09:36:43.621Z,99745.78
2023-05-12T09:37:45.248Z,99745.91
2023-05-12T09:38:47.244Z,99743.31
2023-05-12T09:39:48.872Z,99744.84
2023-05-12T09:40:50.496Z,99741.47
2023-05-12T09:41:55.232Z,99753.59
2023-05-12T09:42:56.861Z,99749.06
2023-05-12T09:43:59.510Z,99746.84
2023-05-12T09:45:05.175Z,99738.91
2023-05-12T09:46:06.934Z,99740.78
2023-05-12T09:47:08.787Z,99739.69
2023-05-12T09:48:11.339Z,99736.28
2023-05-12T09:49:12.992Z,99744.22
2023-05-12T09:50:14.623Z,99732.88
2023-05-12T09:51:17.015Z,99727.22
2023-05-12T09:52:20.974Z,99732.50
2023-05-12T09:53:22.578Z,99743.44
2023-05-12T09:54:33.268Z,99706.81
2023-05-12T09:55:34.925Z,99687.56
2023-05-12T09:56:37.430Z,99726.41
2023-05-12T09:57:44.907Z,99712.81
2023-05-12T09:58:48.053Z,99710.63
2023-05-12T09:59:49.717Z,99737.78
2023-05-12T10:01:17.827Z,99740.06
2023-05-12T10:02:13.578Z,99707.59
2023-05-12T10:03:16.537Z,99710.56
2023-05-12T10:04:18.266Z,99706.44
2023-05-12T10:05:20.916Z,99735.09
2023-05-12T10:06:27.294Z,99727.94
2023-05-12T10:07:28.907Z,99741.19
2023-05-12T10:08:41.797Z,99710.97
2023-05-12T10:09:44.188Z,99726.41
2023-05-12T10:10:45.888Z,99725.63
2023-05-12T10:11:47.561Z,99739.59
2023-05-12T10:12:49.195Z,99734.66
2023-05-12T10:13:50.837Z,99731.69
2023-05-12T10:14:52.469Z,99728.28
2023-05-12T10:15:55.845Z,99721.88
2023-05-12T10:16:57.703Z,99713.19
2023-05-12T10:17:59.428Z,99716.56
2023-05-12T10:19:01.149Z,99735.41
2023-05-12T10:20:03.197Z,99711.94
2023-05-12T10:21:04.814Z,99722.91
2023-05-12T10:22:06.448Z,99719.50
2023-05-12T10:23:08.128Z,99722.22
2023-05-12T10:24:09.730Z,99728.22
2023-05-12T10:25:11.407Z,99727.88
2023-05-12T10:26:13.016Z,99717.31
2023-05-12T10:27:15.029Z,99691.22
2023-05-12T10:28:16.732Z,99741.13
2023-05-12T10:29:18.379Z,99723.38
2023-05-12T10:30:22.108Z,99720.03
2023-05-12T10:31:23.770Z,99731.75
2023-05-12T10:32:25.473Z,99740.06
2023-05-12T10:33:27.183Z,99723.44
2023-05-12T10:34:35.637Z,99744.94
2023-05-12T10:35:38.846Z,99741.19
2023-05-12T10:36:46.654Z,99732.13
2023-05-12T10:37:48.274Z,99730.53
2023-05-12T10:38:49.989Z,99739.59
2023-05-12T10:39:52.000Z,99733.16
2023-05-12T10:41:00.148Z,99733.53
2023-05-12T10:42:01.946Z,99747.16
2023-05-12T10:43:03.593Z,99749.41
2023-05-12T10:44:05.308Z,99742.66
2023-05-12T10:45:17.399Z,99731.69
2023-05-12T10:46:19.743Z,99740.75
2023-05-12T10:47:36.631Z,99725.34
2023-05-12T10:48:51.974Z,99734.41
2023-05-12T10:49:56.345Z,99717.78
2023-05-12T10:50:57.986Z,99735.16
2023-05-12T10:51:59.869Z,99722.69
2023-05-12T10:53:01.491Z,99688.28
2023-05-12T10:54:03.720Z,99738.88
2023-05-12T10:55:05.894Z,99742.69
2023-05-12T10:56:07.918Z,99749.50
2023-05-12T10:57:17.149Z,99744.91
2023-05-12T10:58:20.633Z,99747.59
2023-05-12T10:59:24.317Z,99750.94
2023-05-12T11:00:26.787Z,99740.38
2023-05-12T11:01:28.917Z,99733.59
2023-05-12T11:02:32.521Z,99739.31
2023-05-12T11:04:42.014Z,99737.72
2023-05-12T11:05:44.804Z,99725.25
2023-05-12T11:06:47.247Z,99751.28
2023-05-12T11:07:50.184Z,99759.63
2023-05-12T11:08:53.134Z,99755.91
2023-05-12T11:09:59.270Z,99747.56
2023-05-12T11:11:03.311Z,99748.72
2023-05-12T11:12:08.981Z,99733.25
2023-05-12T11:13:10.588Z,99753.63
2023-05-12T11:14:12.186Z,99751.38
2023-05-12T11:15:14.647Z,99739.69
2023-05-12T11:16:17.224Z,99712.50
2023-05-12T11:17:18.879Z,99737.78
2023-05-12T11:18:23.606Z,99703.81
2023-05-12T11:19:25.258Z,99728.34
2023-05-12T11:20:29.467Z,99744.56
2023-05-12T11:21:32.822Z,99724.94
2023-05-12T11:22:34.462Z,99704.19
2023-05-12T11:23:36.063Z,99741.94
2023-05-12T11:24:40.145Z,99747.59
2023-05-12T11:25:44.617Z,99746.84
2023-05-12T11:26:46.293Z,99730.25
2023-05-12T11:27:49.738Z,99720.03
2023-05-12T11:28:51.364Z,99732.88
2023-05-12T11:29:57.250Z,99737.03
2023-05-12T11:30:58.900Z,99744.94
2023-05-12T11:32:03.539Z,99737.78
2023-05-12T11:33:05.254Z,99741.56
2023-05-12T11:34:11.858Z,99734.00
2023-05-12T11:35:16.132Z,99746.47
2023-05-12T11:36:18.434Z,99736.97
2023-05-12T11:37:21.504Z,99723.78
2023-05-12T11:38:23.140Z,99737.78
2023-05-12T11:39:26.092Z,99744.16
2023-05-12T11:40:27.692Z,99753.97
2023-05-12T11:41:29.327Z,99737.34
2023-05-12T11:42:30.989Z,99758.47
2023-05-12T11:43:32.608Z,99763.75
2023-05-12T11:44:34.288Z,99748.66
2023-05-12T11:45:36.005Z,99765.34
2023-05-12T11:46:37.685Z,99761.94
2023-05-12T11:47:39.334Z,99769.88
2023-05-12T11:48:41.002Z,99745.31
2023-05-12T11:49:52.910Z,99762.72
2023-05-12T11:50:54.539Z,99770.56
2023-05-12T11:51:57.697Z,99755.09
2023-05-12T11:52:59.337Z,99761.13
2023-05-12T11:54:00.957Z,99761.88
2023-05-12T11:55:02.569Z,99768.38
2023-05-12T11:56:04.348Z,99759.66
2023-05-12T11:57:06.130Z,99760.44
2023-05-12T11:58:07.742Z,99774.03
2023-05-12T11:59:09.364Z,99774.78
2023-05-12T12:00:11.526Z,99781.59
2023-05-12T12:01:12.963Z,99790.25
2023-05-12T12:02:19.875Z,99774.72
2023-05-12T12:03:21.565Z,99754.69
2023-05-12T12:04:42.196Z,99780.81
2023-05-12T12:05:45.766Z,99782.31
2023-05-12T12:06:47.444Z,99766.41
2023-05-12T12:07:50.202Z,99778.56
2023-05-12T12:08:58.354Z,99772.09
2023-05-12T12:10:13.848Z,99778.50
2023-05-12T12:11:15.492Z,99776.56
2023-05-12T12:12:17.137Z,99763.38
2023-05-12T12:13:22.381Z,99774.72
2023-05-12T12:14:24.019Z,99789.03
2023-05-12T12:15:25.641Z,99792.75
2023-05-12T12:16:28.111Z,99773.13